Zhuozhou, China
Current Conditions -  °F | °C
As of 9:00 AM on Sunday 21 Dec 2014 (Local Time) from ZBAA Reporting Station
Clear Clear  
Wind Chill: 19°   Ceiling: Unl
Heat Index: 27°   Visibility: 6mi
Dew Point: -2°   Wind: 7mph
Humidity: 29%   Direction: 270°W
Pressure: 30.42"   Gusts: NA
Location:  39.53°N, 115.79°E
Report Text: ZBAA 210100Z 27003MPS 230V320 CAVOK M03/M19 Q1030 NOSIG
Loading
Personal Weather Stations






























Interactive Weather Map New forecast layout! Learn more

10-Day Weather Forecast

Advertisements
Track Severe Weather on mobile